Terminal Aerodrome Forecast
Issued by NWS Sterling, VA

Home | Current Version | Previous Version | Text Only | Print | Product List | Glossary On
Versions: 1 2 3 4 5 6 7 8 9 10 11 12 13 14 15 16 17 18 19
000
FTUS41 KLWX 271456 AAA
TAFCHO
TAF AMD
KCHO 271456Z 2715/2812 36007KT 6SM -RA BKN006 OVC015
     FM271700 04005KT P6SM OVC015
     FM271900 05004KT P6SM OVC025
     FM272000 06004KT P6SM OVC050
     FM280200 35005KT P6SM BKN060
     FM281100 32006KT P6SM SCT250=

USA.gov is the U.S. government's official web portal to all federal, state and local government web resources and services.